sensor_id;sensor_type;location;lat;lon;timestamp;pressure;altitude;pressure_sealevel;temperature;humidity
73748;BME280;62056;52.130;5.428;2023-07-28T00:01:55;100659.66;;;18.38;89.27
73748;BME280;62056;52.130;5.428;2023-07-28T00:04:22;100662.34;;;18.38;89.22
73748;BME280;62056;52.130;5.428;2023-07-28T00:06:49;100659.31;;;18.40;90.39
73748;BME280;62056;52.130;5.428;2023-07-28T00:09:15;100661.56;;;18.38;89.88
73748;BME280;62056;52.130;5.428;2023-07-28T00:11:43;100665.03;;;18.38;89.73
73748;BME280;62056;52.130;5.428;2023-07-28T00:14:10;100660.44;;;18.39;89.74
73748;BME280;62056;52.130;5.428;2023-07-28T00:16:37;100652.34;;;18.39;89.31
73748;BME280;62056;52.130;5.428;2023-07-28T00:19:04;100649.66;;;18.39;89.64
73748;BME280;62056;52.130;5.428;2023-07-28T00:21:31;100650.81;;;18.38;89.76
73748;BME280;62056;52.130;5.428;2023-07-28T00:23:57;100653.50;;;18.38;89.55
73748;BME280;62056;52.130;5.428;2023-07-28T00:26:24;100654.59;;;18.37;89.86
73748;BME280;62056;52.130;5.428;2023-07-28T00:28:51;100648.44;;;18.36;89.64
73748;BME280;62056;52.130;5.428;2023-07-28T00:31:17;100648.44;;;18.36;89.51
73748;BME280;62056;52.130;5.428;2023-07-28T00:33:44;100646.91;;;18.35;89.98
73748;BME280;62056;52.130;5.428;2023-07-28T00:36:11;100648.44;;;18.36;89.84
73748;BME280;62056;52.130;5.428;2023-07-28T00:38:37;100645.75;;;18.36;90.35
73748;BME280;62056;52.130;5.428;2023-07-28T00:41:04;100657.66;;;18.35;90.03
73748;BME280;62056;52.130;5.428;2023-07-28T00:43:31;100638.81;;;18.35;90.68
73748;BME280;62056;52.130;5.428;2023-07-28T00:45:58;100649.94;;;18.34;90.34
73748;BME280;62056;52.130;5.428;2023-07-28T00:48:25;100651.47;;;18.35;90.69
73748;BME280;62056;52.130;5.428;2023-07-28T00:50:53;100649.59;;;18.35;91.09
73748;BME280;62056;52.130;5.428;2023-07-28T00:53:23;100652.28;;;18.35;90.56
73748;BME280;62056;52.130;5.428;2023-07-28T00:55:51;100639.59;;;18.36;90.28
73748;BME280;62056;52.130;5.428;2023-07-28T00:58:19;100644.97;;;18.36;90.56
73748;BME280;62056;52.130;5.428;2023-07-28T01:00:45;100646.53;;;18.37;90.49
73748;BME280;62056;52.130;5.428;2023-07-28T01:03:15;100645.75;;;18.36;90.34
73748;BME280;62056;52.130;5.428;2023-07-28T01:10:54;100653.84;;;18.36;90.47
73748;BME280;62056;52.130;5.428;2023-07-28T01:13:21;100658.09;;;18.37;90.50
73748;BME280;62056;52.130;5.428;2023-07-28T01:15:48;100652.28;;;18.35;90.72
73748;BME280;62056;52.130;5.428;2023-07-28T01:18:15;100659.22;;;18.36;90.95
73748;BME280;62056;52.130;5.428;2023-07-28T01:20:42;100663.03;;;18.35;90.45
73748;BME280;62056;52.130;5.428;2023-07-28T01:25:47;100656.84;;;18.35;91.04
73748;BME280;62056;52.130;5.428;2023-07-28T01:28:15;100650.38;;;18.36;90.65
73748;BME280;62056;52.130;5.428;2023-07-28T01:30:43;100670.31;;;18.35;90.56
73748;BME280;62056;52.130;5.428;2023-07-28T01:33:10;100666.84;;;18.34;90.50
73748;BME280;62056;52.130;5.428;2023-07-28T01:35:37;100666.06;;;18.34;90.56
73748;BME280;62056;52.130;5.428;2023-07-28T01:38:05;100670.69;;;18.33;90.46
73748;BME280;62056;52.130;5.428;2023-07-28T01:40:32;100664.50;;;18.33;90.89
73748;BME280;62056;52.130;5.428;2023-07-28T01:42:59;100675.25;;;18.33;90.56
73748;BME280;62056;52.130;5.428;2023-07-28T01:45:27;100671.78;;;18.32;90.71
73748;BME280;62056;52.130;5.428;2023-07-28T01:47:53;100669.09;;;18.32;90.52
73748;BME280;62056;52.130;5.428;2023-07-28T01:50:20;100659.13;;;18.33;90.60
73748;BME280;62056;52.130;5.428;2023-07-28T01:52:47;100667.19;;;18.33;90.98
73748;BME280;62056;52.130;5.428;2023-07-28T01:55:14;100666.41;;;18.32;90.95
73748;BME280;62056;52.130;5.428;2023-07-28T01:57:53;100665.63;;;18.32;90.76
73748;BME280;62056;52.130;5.428;2023-07-28T02:00:20;100662.94;;;18.32;90.52
73748;BME280;62056;52.130;5.428;2023-07-28T02:02:48;100664.50;;;18.33;90.93
73748;BME280;62056;52.130;5.428;2023-07-28T02:05:15;100660.25;;;18.32;91.08
73748;BME280;62056;52.130;5.428;2023-07-28T02:07:42;100667.19;;;18.33;91.35
73748;BME280;62056;52.130;5.428;2023-07-28T02:10:09;100662.94;;;18.32;90.84
73748;BME280;62056;52.130;5.428;2023-07-28T02:12:39;100662.94;;;18.32;90.83
73748;BME280;62056;52.130;5.428;2023-07-28T02:15:07;100667.56;;;18.31;90.97
73748;BME280;62056;52.130;5.428;2023-07-28T02:17:34;100673.25;;;18.30;90.84
73748;BME280;62056;52.130;5.428;2023-07-28T02:20:03;100674.38;;;18.29;90.71
73748;BME280;62056;52.130;5.428;2023-07-28T02:22:31;100672.50;;;18.29;90.60
73748;BME280;62056;52.130;5.428;2023-07-28T02:24:58;100667.88;;;18.30;91.56
73748;BME280;62056;52.130;5.428;2023-07-28T02:27:28;100661.72;;;18.29;91.71
73748;BME280;62056;52.130;5.428;2023-07-28T02:29:55;100662.50;;;18.30;91.53
73748;BME280;62056;52.130;5.428;2023-07-28T02:32:22;100671.69;;;18.29;90.75
73748;BME280;62056;52.130;5.428;2023-07-28T02:34:49;100659.38;;;18.28;91.19
73748;BME280;62056;52.130;5.428;2023-07-28T02:37:16;100663.97;;;18.27;91.19
73748;BME280;62056;52.130;5.428;2023-07-28T02:39:43;100662.06;;;18.28;91.07
73748;BME280;62056;52.130;5.428;2023-07-28T02:42:11;100668.56;;;18.27;91.63
73748;BME280;62056;52.130;5.428;2023-07-28T02:44:38;100671.25;;;18.27;91.51
73748;BME280;62056;52.130;5.428;2023-07-28T02:47:05;100672.06;;;18.27;91.15
73748;BME280;62056;52.130;5.428;2023-07-28T02:49:32;100669.69;;;18.26;91.15
73748;BME280;62056;52.130;5.428;2023-07-28T02:51:59;100673.16;;;18.26;91.19
73748;BME280;62056;52.130;5.428;2023-07-28T02:54:26;100681.22;;;18.26;91.19
73748;BME280;62056;52.130;5.428;2023-07-28T02:56:53;100674.31;;;18.25;91.47
73748;BME280;62056;52.130;5.428;2023-07-28T02:59:20;100682.00;;;18.27;91.72
73748;BME280;62056;52.130;5.428;2023-07-28T03:01:47;100684.38;;;18.28;92.51
73748;BME280;62056;52.130;5.428;2023-07-28T03:04:14;100682.81;;;18.27;91.73
73748;BME280;62056;52.130;5.428;2023-07-28T03:06:41;100680.13;;;18.27;91.51
73748;BME280;62056;52.130;5.428;2023-07-28T03:09:08;100682.81;;;18.27;91.76
73748;BME280;62056;52.130;5.428;2023-07-28T03:11:35;100687.06;;;18.28;91.57
73748;BME280;62056;52.130;5.428;2023-07-28T03:14:01;100687.84;;;18.29;91.80
73748;BME280;62056;52.130;5.428;2023-07-28T03:16:29;100687.06;;;18.28;91.73
73748;BME280;62056;52.130;5.428;2023-07-28T03:18:56;100695.91;;;18.29;91.59
73748;BME280;62056;52.130;5.428;2023-07-28T03:21:23;100693.22;;;18.29;91.73
73748;BME280;62056;52.130;5.428;2023-07-28T03:23:49;100704.78;;;18.29;91.65
73748;BME280;62056;52.130;5.428;2023-07-28T03:26:16;100702.09;;;18.29;91.90
73748;BME280;62056;52.130;5.428;2023-07-28T03:28:43;100698.25;;;18.30;91.85
73748;BME280;62056;52.130;5.428;2023-07-28T03:31:09;100702.88;;;18.30;91.82
73748;BME280;62056;52.130;5.428;2023-07-28T03:33:36;100706.00;;;18.32;91.78
73748;BME280;62056;52.130;5.428;2023-07-28T03:36:02;100700.19;;;18.30;91.76
73748;BME280;62056;52.130;5.428;2023-07-28T03:38:29;100707.47;;;18.29;91.73
73748;BME280;62056;52.130;5.428;2023-07-28T03:40:56;100704.78;;;18.29;91.78
73748;BME280;62056;52.130;5.428;2023-07-28T03:43:23;100708.25;;;18.30;92.26
73748;BME280;62056;52.130;5.428;2023-07-28T03:45:50;100716.34;;;18.30;92.73
73748;BME280;62056;52.130;5.428;2023-07-28T03:48:17;100723.63;;;18.29;92.21
73748;BME280;62056;52.130;5.428;2023-07-28T03:50:43;100718.25;;;18.29;92.27
73748;BME280;62056;52.130;5.428;2023-07-28T03:53:10;100724.41;;;18.30;92.64
73748;BME280;62056;52.130;5.428;2023-07-28T03:55:36;100721.38;;;18.31;92.67
73748;BME280;62056;52.130;5.428;2023-07-28T03:58:03;100721.72;;;18.30;92.42
73748;BME280;62056;52.130;5.428;2023-07-28T04:00:30;100720.13;;;18.29;92.15
73748;BME280;62056;52.130;5.428;2023-07-28T04:02:57;100720.13;;;18.29;92.83
73748;BME280;62056;52.130;5.428;2023-07-28T04:05:24;100719.03;;;18.30;92.66
73748;BME280;62056;52.130;5.428;2023-07-28T04:07:51;100710.16;;;18.29;92.70
73748;BME280;62056;52.130;5.428;2023-07-28T04:10:18;100718.25;;;18.29;92.71
73748;BME280;62056;52.130;5.428;2023-07-28T04:12:44;100720.94;;;18.29;92.82
73748;BME280;62056;52.130;5.428;2023-07-28T04:15:11;100728.22;;;18.29;93.00
73748;BME280;62056;52.130;5.428;2023-07-28T04:17:37;100724.41;;;18.30;92.57
73748;BME280;62056;52.130;5.428;2023-07-28T04:20:06;100725.97;;;18.31;93.32
73748;BME280;62056;52.130;5.428;2023-07-28T04:22:33;100725.63;;;18.32;95.00
73748;BME280;62056;52.130;5.428;2023-07-28T04:25:00;100725.19;;;18.30;93.72
73748;BME280;62056;52.130;5.428;2023-07-28T04:27:28;100722.94;;;18.32;93.49
73748;BME280;62056;52.130;5.428;2023-07-28T04:29:57;100717.09;;;18.30;92.89
73748;BME280;62056;52.130;5.428;2023-07-28T04:32:24;100720.56;;;18.31;93.17
73748;BME280;62056;52.130;5.428;2023-07-28T04:34:52;100727.97;;;18.34;94.05
73748;BME280;62056;52.130;5.428;2023-07-28T04:37:20;100726.75;;;18.31;93.31
73748;BME280;62056;52.130;5.428;2023-07-28T04:39:46;100727.88;;;18.30;93.21
73748;BME280;62056;52.130;5.428;2023-07-28T04:42:13;100730.22;;;18.32;93.65
73748;BME280;62056;52.130;5.428;2023-07-28T04:44:40;100728.31;;;18.32;94.20
73748;BME280;62056;52.130;5.428;2023-07-28T04:47:07;100739.09;;;18.32;93.94
73748;BME280;62056;52.130;5.428;2023-07-28T04:49:33;100730.69;;;18.34;93.46
73748;BME280;62056;52.130;5.428;2023-07-28T04:52:00;100731.78;;;18.33;93.27
73748;BME280;62056;52.130;5.428;2023-07-28T04:54:27;100738.75;;;18.34;93.44
73748;BME280;62056;52.130;5.428;2023-07-28T04:56:53;100744.13;;;18.34;93.42
73748;BME280;62056;52.130;5.428;2023-07-28T04:59:20;100736.06;;;18.34;93.09
73748;BME280;62056;52.130;5.428;2023-07-28T05:01:46;100741.88;;;18.36;93.93
73748;BME280;62056;52.130;5.428;2023-07-28T05:04:13;100747.28;;;18.36;93.63
73748;BME280;62056;52.130;5.428;2023-07-28T05:06:40;100741.88;;;18.36;93.57
73748;BME280;62056;52.130;5.428;2023-07-28T05:09:07;100748.38;;;18.35;93.65
73748;BME280;62056;52.130;5.428;2023-07-28T05:11:33;100738.41;;;18.35;93.87
73748;BME280;62056;52.130;5.428;2023-07-28T05:14:01;100739.63;;;18.38;93.94
73748;BME280;62056;52.130;5.428;2023-07-28T05:16:30;100734.25;;;18.38;93.95
73748;BME280;62056;52.130;5.428;2023-07-28T05:18:57;100745.78;;;18.38;93.75
73748;BME280;62056;52.130;5.428;2023-07-28T05:21:23;100744.66;;;18.39;93.55
73748;BME280;62056;52.130;5.428;2023-07-28T05:23:50;100747.00;;;18.41;94.08
73748;BME280;62056;52.130;5.428;2023-07-28T05:26:17;100745.09;;;18.41;93.95
73748;BME280;62056;52.130;5.428;2023-07-28T05:28:44;100743.22;;;18.42;93.86
73748;BME280;62056;52.130;5.428;2023-07-28T05:31:10;100739.38;;;18.43;94.00
73748;BME280;62056;52.130;5.428;2023-07-28T05:33:39;100732.88;;;18.44;94.15
73748;BME280;62056;52.130;5.428;2023-07-28T05:36:06;100733.34;;;18.46;94.07
73748;BME280;62056;52.130;5.428;2023-07-28T05:38:33;100736.47;;;18.48;94.89
73748;BME280;62056;52.130;5.428;2023-07-28T05:41:00;100735.31;;;18.49;94.06
73748;BME280;62056;52.130;5.428;2023-07-28T05:43:27;100736.09;;;18.50;94.35
73748;BME280;62056;52.130;5.428;2023-07-28T05:45:55;100740.81;;;18.53;94.23
73748;BME280;62056;52.130;5.428;2023-07-28T05:48:22;100745.88;;;18.54;94.25
73748;BME280;62056;52.130;5.428;2023-07-28T05:50:49;100746.31;;;18.56;94.63
73748;BME280;62056;52.130;5.428;2023-07-28T05:53:17;100753.25;;;18.57;94.48
73748;BME280;62056;52.130;5.428;2023-07-28T05:55:44;100753.69;;;18.59;94.52
73748;BME280;62056;52.130;5.428;2023-07-28T05:58:11;100759.53;;;18.61;95.03
73748;BME280;62056;52.130;5.428;2023-07-28T06:00:41;100762.66;;;18.64;94.99
73748;BME280;62056;52.130;5.428;2023-07-28T06:03:10;100760.41;;;18.66;95.00
73748;BME280;62056;52.130;5.428;2023-07-28T06:05:40;100766.22;;;18.68;95.43
73748;BME280;62056;52.130;5.428;2023-07-28T06:08:07;100768.59;;;18.69;95.19
73748;BME280;62056;52.130;5.428;2023-07-28T06:10:34;100775.19;;;18.72;94.94
73748;BME280;62056;52.130;5.428;2023-07-28T06:13:01;100775.97;;;18.72;94.98
73748;BME280;62056;52.130;5.428;2023-07-28T06:15:29;100770.59;;;18.72;94.78
73748;BME280;62056;52.130;5.428;2023-07-28T06:17:56;100771.03;;;18.74;95.23
73748;BME280;62056;52.130;5.428;2023-07-28T06:20:22;100772.25;;;18.77;95.16
73748;BME280;62056;52.130;5.428;2023-07-28T06:22:49;100771.13;;;18.78;95.10
73748;BME280;62056;52.130;5.428;2023-07-28T06:25:16;100778.22;;;18.83;95.46
73748;BME280;62056;52.130;5.428;2023-07-28T06:27:43;100775.94;;;18.85;95.76
73748;BME280;62056;52.130;5.428;2023-07-28T06:30:10;100783.81;;;18.90;95.83
73748;BME280;62056;52.130;5.428;2023-07-28T06:32:36;100779.31;;;18.94;95.67
73748;BME280;62056;52.130;5.428;2023-07-28T06:35:04;100789.47;;;19.00;96.20
73748;BME280;62056;52.130;5.428;2023-07-28T06:37:31;100794.28;;;19.07;96.51
73748;BME280;62056;52.130;5.428;2023-07-28T06:39:59;100787.16;;;19.15;96.69
73748;BME280;62056;52.130;5.428;2023-07-28T06:42:25;100793.50;;;19.23;96.88
73748;BME280;62056;52.130;5.428;2023-07-28T06:44:52;100797.63;;;19.32;97.05
73748;BME280;62056;52.130;5.428;2023-07-28T06:47:19;100812.50;;;19.42;97.02
73748;BME280;62056;52.130;5.428;2023-07-28T06:49:46;100808.50;;;19.52;97.70
73748;BME280;62056;52.130;5.428;2023-07-28T06:52:13;100812.59;;;19.61;98.16
73748;BME280;62056;52.130;5.428;2023-07-28T06:54:40;100819.28;;;19.68;97.86
73748;BME280;62056;52.130;5.428;2023-07-28T06:57:06;100819.03;;;19.73;97.70
73748;BME280;62056;52.130;5.428;2023-07-28T06:59:33;100813.84;;;19.80;97.58
73748;BME280;62056;52.130;5.428;2023-07-28T07:02:00;100822.91;;;19.88;97.58
73748;BME280;62056;52.130;5.428;2023-07-28T07:04:27;100818.00;;;19.93;97.73
73748;BME280;62056;52.130;5.428;2023-07-28T07:06:53;100823.16;;;19.98;98.22
73748;BME280;62056;52.130;5.428;2023-07-28T07:09:20;100828.25;;;20.04;97.79
73748;BME280;62056;52.130;5.428;2023-07-28T07:11:48;100821.81;;;20.08;98.13
73748;BME280;62056;52.130;5.428;2023-07-28T07:14:15;100828.88;;;20.13;97.07
73748;BME280;62056;52.130;5.428;2023-07-28T07:16:42;100830.16;;;20.19;97.67
73748;BME280;62056;52.130;5.428;2023-07-28T07:19:10;100827.19;;;20.24;95.53
73748;BME280;62056;52.130;5.428;2023-07-28T07:21:37;100830.41;;;20.30;97.10
73748;BME280;62056;52.130;5.428;2023-07-28T07:24:04;100833.44;;;20.28;95.93
73748;BME280;62056;52.130;5.428;2023-07-28T07:26:31;100836.66;;;20.34;96.44
73748;BME280;62056;52.130;5.428;2023-07-28T07:28:59;100836.38;;;20.39;96.29
73748;BME280;62056;52.130;5.428;2023-07-28T07:31:26;100843.41;;;20.43;95.80
73748;BME280;62056;52.130;5.428;2023-07-28T07:33:53;100841.53;;;20.44;96.18
73748;BME280;62056;52.130;5.428;2023-07-28T07:36:20;100851.69;;;20.51;95.89
73748;BME280;62056;52.130;5.428;2023-07-28T07:38:47;100843.28;;;20.56;96.04
73748;BME280;62056;52.130;5.428;2023-07-28T07:41:15;100856.75;;;20.52;95.44
73748;BME280;62056;52.130;5.428;2023-07-28T07:43:47;100858.28;;;20.53;94.30
73748;BME280;62056;52.130;5.428;2023-07-28T07:46:15;100863.09;;;20.60;94.54
73748;BME280;62056;52.130;5.428;2023-07-28T07:48:58;100865.88;;;20.64;91.06
73748;BME280;62056;52.130;5.428;2023-07-28T07:51:24;100867.50;;;20.68;94.11
73748;BME280;62056;52.130;5.428;2023-07-28T07:53:51;100875.34;;;20.73;94.47
73748;BME280;62056;52.130;5.428;2023-07-28T07:56:18;100872.34;;;20.78;94.07
73748;BME280;62056;52.130;5.428;2023-07-28T07:58:46;100872.13;;;20.87;93.27
73748;BME280;62056;52.130;5.428;2023-07-28T08:01:14;100876.06;;;20.90;93.66
73748;BME280;62056;52.130;5.428;2023-07-28T08:03:41;100877.72;;;20.94;92.43
73748;BME280;62056;52.130;5.428;2023-07-28T08:06:09;100877.06;;;21.01;92.77
73748;BME280;62056;52.130;5.428;2023-07-28T08:08:38;100882.25;;;21.10;92.42
73748;BME280;62056;52.130;5.428;2023-07-28T08:11:09;100878.91;;;21.16;91.74
73748;BME280;62056;52.130;5.428;2023-07-28T08:13:35;100875.19;;;21.25;92.77
73748;BME280;62056;52.130;5.428;2023-07-28T08:16:03;100883.44;;;21.32;92.54
73748;BME280;62056;52.130;5.428;2023-07-28T08:18:30;100880.09;;;21.38;92.34
73748;BME280;62056;52.130;5.428;2023-07-28T08:20:57;100883.78;;;21.50;92.47
73748;BME280;62056;52.130;5.428;2023-07-28T08:23:23;100886.22;;;21.55;91.98
73748;BME280;62056;52.130;5.428;2023-07-28T08:25:52;100885.91;;;21.60;89.18
73748;BME280;62056;52.130;5.428;2023-07-28T08:28:22;100879.22;;;21.77;91.79
73748;BME280;62056;52.130;5.428;2023-07-28T08:30:56;100896.03;;;21.86;89.46
73748;BME280;62056;52.130;5.428;2023-07-28T08:33:23;100886.94;;;21.98;90.12
73748;BME280;62056;52.130;5.428;2023-07-28T08:35:50;100885.94;;;22.10;90.53
73748;BME280;62056;52.130;5.428;2023-07-28T08:38:17;100895.50;;;22.27;89.36
73748;BME280;62056;52.130;5.428;2023-07-28T08:40:44;100899.47;;;22.33;88.58
73748;BME280;62056;52.130;5.428;2023-07-28T08:43:13;100892.31;;;22.44;89.26
73748;BME280;62056;52.130;5.428;2023-07-28T08:45:40;100905.53;;;22.49;88.40
73748;BME280;62056;52.130;5.428;2023-07-28T08:48:07;100904.81;;;22.52;84.57
73748;BME280;62056;52.130;5.428;2023-07-28T08:50:35;100902.13;;;22.56;87.43
73748;BME280;62056;52.130;5.428;2023-07-28T08:53:03;100906.28;;;22.50;86.11
73748;BME280;62056;52.130;5.428;2023-07-28T08:55:29;100904.06;;;22.55;85.42
73748;BME280;62056;52.130;5.428;2023-07-28T08:58:13;100902.19;;;22.59;82.59
73748;BME280;62056;52.130;5.428;2023-07-28T09:00:40;100909.59;;;22.62;85.38
73748;BME280;62056;52.130;5.428;2023-07-28T09:03:08;100911.88;;;22.60;84.19
73748;BME280;62056;52.130;5.428;2023-07-28T09:05:35;100913.16;;;22.70;84.49
73748;BME280;62056;52.130;5.428;2023-07-28T09:08:02;100898.09;;;22.73;83.38
73748;BME280;62056;52.130;5.428;2023-07-28T09:10:47;100900.44;;;22.74;83.40
73748;BME280;62056;52.130;5.428;2023-07-28T09:13:18;100907.47;;;22.79;82.97
73748;BME280;62056;52.130;5.428;2023-07-28T09:15:46;100912.09;;;22.78;82.15
73748;BME280;62056;52.130;5.428;2023-07-28T09:18:17;100918.72;;;22.81;83.05
73748;BME280;62056;52.130;5.428;2023-07-28T09:20:44;100916.47;;;22.87;81.24
73748;BME280;62056;52.130;5.428;2023-07-28T09:23:13;100913.53;;;22.99;81.32
73748;BME280;62056;52.130;5.428;2023-07-28T09:25:42;100910.34;;;22.93;81.09
73748;BME280;62056;52.130;5.428;2023-07-28T09:28:09;100919.59;;;22.89;80.34
73748;BME280;62056;52.130;5.428;2023-07-28T09:30:48;100915.81;;;22.97;80.46
73748;BME280;62056;52.130;5.428;2023-07-28T09:33:34;100917.56;;;23.09;79.21
73748;BME280;62056;52.130;5.428;2023-07-28T09:36:11;100915.66;;;23.13;74.70
73748;BME280;62056;52.130;5.428;2023-07-28T09:38:41;100915.75;;;23.20;78.70
73748;BME280;62056;52.130;5.428;2023-07-28T09:41:10;100920.16;;;23.35;79.32
73748;BME280;62056;52.130;5.428;2023-07-28T09:43:38;100928.75;;;23.41;78.64
73748;BME280;62056;52.130;5.428;2023-07-28T09:46:07;100924.59;;;23.51;77.81
73748;BME280;62056;52.130;5.428;2023-07-28T09:48:37;100916.91;;;23.56;78.17
73748;BME280;62056;52.130;5.428;2023-07-28T09:51:18;100924.72;;;23.61;77.32
73748;BME280;62056;52.130;5.428;2023-07-28T09:53:49;100924.34;;;23.67;76.87
73748;BME280;62056;52.130;5.428;2023-07-28T09:56:27;100926.06;;;23.78;76.23
73748;BME280;62056;52.130;5.428;2023-07-28T09:58:56;100922.25;;;23.87;75.22
73748;BME280;62056;52.130;5.428;2023-07-28T10:01:34;100926.63;;;23.98;75.89
73748;BME280;62056;52.130;5.428;2023-07-28T10:04:02;100918.97;;;24.11;74.86
73748;BME280;62056;52.130;5.428;2023-07-28T10:06:30;100918.28;;;24.29;75.02
73748;BME280;62056;52.130;5.428;2023-07-28T10:08:59;100912.09;;;24.28;73.62
73748;BME280;62056;52.130;5.428;2023-07-28T10:11:29;100912.13;;;24.35;73.89
73748;BME280;62056;52.130;5.428;2023-07-28T10:13:56;100917.16;;;24.33;73.25
73748;BME280;62056;52.130;5.428;2023-07-28T10:16:31;100907.50;;;24.39;72.79
73748;BME280;62056;52.130;5.428;2023-07-28T10:18:58;100914.47;;;24.37;72.20
73748;BME280;62056;52.130;5.428;2023-07-28T10:21:27;100914.97;;;24.50;71.79
73748;BME280;62056;52.130;5.428;2023-07-28T10:23:55;100916.97;;;24.56;72.29
73748;BME280;62056;52.130;5.428;2023-07-28T10:26:35;100917.38;;;24.62;71.21
73748;BME280;62056;52.130;5.428;2023-07-28T10:29:15;100923.22;;;24.68;69.80
73748;BME280;62056;52.130;5.428;2023-07-28T10:31:54;100923.22;;;24.68;70.50
73748;BME280;62056;52.130;5.428;2023-07-28T10:34:23;100920.13;;;24.69;69.91
73748;BME280;62056;52.130;5.428;2023-07-28T10:36:58;100919.38;;;24.76;68.15
73748;BME280;62056;52.130;5.428;2023-07-28T10:39:26;100925.69;;;24.94;69.66
73748;BME280;62056;52.130;5.428;2023-07-28T10:42:06;100910.13;;;24.91;68.28
73748;BME280;62056;52.130;5.428;2023-07-28T10:44:36;100907.03;;;24.93;68.98
73748;BME280;62056;52.130;5.428;2023-07-28T10:47:48;100909.81;;;25.07;68.68
73748;BME280;62056;52.130;5.428;2023-07-28T10:50:15;100913.38;;;25.22;68.50
73748;BME280;62056;52.130;5.428;2023-07-28T10:52:46;100924.28;;;25.36;66.31
73748;BME280;62056;52.130;5.428;2023-07-28T10:55:16;100916.88;;;25.33;65.48
73748;BME280;62056;52.130;5.428;2023-07-28T10:57:45;100920.41;;;25.37;65.46
73748;BME280;62056;52.130;5.428;2023-07-28T11:00:17;100922.38;;;25.40;65.38
73748;BME280;62056;52.130;5.428;2023-07-28T11:02:53;100915.00;;;25.62;65.17
73748;BME280;62056;52.130;5.428;2023-07-28T11:05:24;100907.63;;;25.63;65.59
73748;BME280;62056;52.130;5.428;2023-07-28T11:07:55;100923.97;;;25.74;65.38
73748;BME280;62056;52.130;5.428;2023-07-28T11:10:23;100918.91;;;25.83;65.08
73748;BME280;62056;52.130;5.428;2023-07-28T11:13:00;100933.31;;;25.83;64.80
73748;BME280;62056;52.130;5.428;2023-07-28T11:15:50;100926.69;;;25.77;65.09
73748;BME280;62056;52.130;5.428;2023-07-28T11:18:20;100930.63;;;25.91;63.52
73748;BME280;62056;52.130;5.428;2023-07-28T11:20:48;100938.34;;;25.85;64.49
73748;BME280;62056;52.130;5.428;2023-07-28T11:23:18;100927.88;;;25.98;65.02
73748;BME280;62056;52.130;5.428;2023-07-28T11:26:08;100937.22;;;25.93;64.81
73748;BME280;62056;52.130;5.428;2023-07-28T11:28:39;100931.00;;;25.93;64.41
73748;BME280;62056;52.130;5.428;2023-07-28T11:31:26;100930.22;;;25.96;64.25
73748;BME280;62056;52.130;5.428;2023-07-28T11:34:01;100938.78;;;25.98;64.49
73748;BME280;62056;52.130;5.428;2023-07-28T11:36:37;100937.25;;;25.90;63.98
73748;BME280;62056;52.130;5.428;2023-07-28T11:39:12;100942.28;;;25.95;63.85
73748;BME280;62056;52.130;5.428;2023-07-28T11:41:41;100952.78;;;25.85;63.75
73748;BME280;62056;52.130;5.428;2023-07-28T11:44:23;100950.03;;;25.78;64.17
73748;BME280;62056;52.130;5.428;2023-07-28T11:46:51;100939.91;;;25.79;63.78
73748;BME280;62056;52.130;5.428;2023-07-28T11:49:24;100938.34;;;25.74;64.04
73748;BME280;62056;52.130;5.428;2023-07-28T11:52:00;100944.59;;;25.78;64.00
73748;BME280;62056;52.130;5.428;2023-07-28T11:54:27;100932.91;;;25.85;64.11
73748;BME280;62056;52.130;5.428;2023-07-28T12:04:27;100943.06;;;25.95;64.01
73748;BME280;62056;52.130;5.428;2023-07-28T12:09:51;100937.63;;;26.02;62.59
73748;BME280;62056;52.130;5.428;2023-07-28T12:12:24;100950.84;;;26.11;62.93
73748;BME280;62056;52.130;5.428;2023-07-28T12:14:53;100954.72;;;26.10;63.34
73748;BME280;62056;52.130;5.428;2023-07-28T12:17:24;100948.50;;;26.28;62.44
73748;BME280;62056;52.130;5.428;2023-07-28T12:20:13;100947.34;;;26.14;60.00
73748;BME280;62056;52.130;5.428;2023-07-28T12:22:43;100949.31;;;26.17;61.34
73748;BME280;62056;52.130;5.428;2023-07-28T12:25:11;100952.41;;;26.12;60.09
73748;BME280;62056;52.130;5.428;2023-07-28T12:27:38;100952.00;;;25.96;61.30
73748;BME280;62056;52.130;5.428;2023-07-28T12:30:05;100947.34;;;25.96;61.56
73748;BME280;62056;52.130;5.428;2023-07-28T12:32:42;100949.31;;;26.03;62.03
73748;BME280;62056;52.130;5.428;2023-07-28T12:35:29;100942.69;;;26.08;60.21
73748;BME280;62056;52.130;5.428;2023-07-28T12:38:05;100944.63;;;26.11;60.68
73748;BME280;62056;52.130;5.428;2023-07-28T12:40:34;100942.28;;;26.23;60.32
73748;BME280;62056;52.130;5.428;2023-07-28T12:43:05;100950.06;;;26.29;60.55
73748;BME280;62056;52.130;5.428;2023-07-28T12:45:34;100948.50;;;26.38;59.95
73748;BME280;62056;52.130;5.428;2023-07-28T12:48:04;100946.16;;;26.37;59.11
73748;BME280;62056;52.130;5.428;2023-07-28T12:50:30;100946.97;;;26.23;58.75
73748;BME280;62056;52.130;5.428;2023-07-28T12:53:01;100947.72;;;26.20;59.62
73748;BME280;62056;52.130;5.428;2023-07-28T12:55:40;100949.69;;;26.19;59.19
73748;BME280;62056;52.130;5.428;2023-07-28T12:58:26;100952.41;;;26.12;59.78
73748;BME280;62056;52.130;5.428;2023-07-28T13:00:55;100952.03;;;26.07;59.78
73748;BME280;62056;52.130;5.428;2023-07-28T13:03:27;100940.72;;;26.12;60.47
73748;BME280;62056;52.130;5.428;2023-07-28T13:05:54;100949.31;;;26.21;60.02
73748;BME280;62056;52.130;5.428;2023-07-28T13:08:21;100948.88;;;26.33;59.35
73748;BME280;62056;52.130;5.428;2023-07-28T13:11:11;100957.03;;;26.48;58.82
73748;BME280;62056;52.130;5.428;2023-07-28T13:13:43;100950.03;;;26.47;58.45
73748;BME280;62056;52.130;5.428;2023-07-28T13:16:11;100957.44;;;26.42;58.35
73748;BME280;62056;52.130;5.428;2023-07-28T13:18:39;100955.09;;;26.44;58.44